sensor_id;sensor_type;location;lat;lon;timestamp;temperature;humidity
42201;DHT22;27869;51.442;7.540;2023-04-03T00:00:33;1.00;99.90
42201;DHT22;27869;51.442;7.540;2023-04-03T00:03:01;1.00;99.90
42201;DHT22;27869;51.442;7.540;2023-04-03T00:05:28;1.00;99.90
42201;DHT22;27869;51.442;7.540;2023-04-03T00:07:55;1.00;99.90
42201;DHT22;27869;51.442;7.540;2023-04-03T00:10:22;1.00;99.90
42201;DHT22;27869;51.442;7.540;2023-04-03T00:12:49;0.90;99.90
42201;DHT22;27869;51.442;7.540;2023-04-03T00:15:16;0.90;99.90
42201;DHT22;27869;51.442;7.540;2023-04-03T00:17:43;0.90;99.90
42201;DHT22;27869;51.442;7.540;2023-04-03T00:20:11;0.90;99.90
42201;DHT22;27869;51.442;7.540;2023-04-03T00:22:38;0.90;99.90
42201;DHT22;27869;51.442;7.540;2023-04-03T00:25:06;0.90;99.90
42201;DHT22;27869;51.442;7.540;2023-04-03T00:27:33;0.80;99.90
42201;DHT22;27869;51.442;7.540;2023-04-03T00:30:03;0.80;99.90
42201;DHT22;27869;51.442;7.540;2023-04-03T00:32:30;0.80;99.90
42201;DHT22;27869;51.442;7.540;2023-04-03T00:34:57;0.80;99.90
42201;DHT22;27869;51.442;7.540;2023-04-03T00:37:25;0.70;99.90
42201;DHT22;27869;51.442;7.540;2023-04-03T00:39:52;0.70;99.90
42201;DHT22;27869;51.442;7.540;2023-04-03T00:42:19;0.70;99.90
42201;DHT22;27869;51.442;7.540;2023-04-03T00:47:55;0.70;99.90
42201;DHT22;27869;51.442;7.540;2023-04-03T00:50:25;0.70;99.90
42201;DHT22;27869;51.442;7.540;2023-04-03T00:52:53;0.70;99.90
42201;DHT22;27869;51.442;7.540;2023-04-03T00:55:21;0.60;99.90
42201;DHT22;27869;51.442;7.540;2023-04-03T00:57:48;0.60;99.90
42201;DHT22;27869;51.442;7.540;2023-04-03T01:00:19;0.60;99.90
42201;DHT22;27869;51.442;7.540;2023-04-03T01:02:48;0.60;99.90
42201;DHT22;27869;51.442;7.540;2023-04-03T01:05:16;0.60;99.90
42201;DHT22;27869;51.442;7.540;2023-04-03T01:07:43;0.60;99.90
42201;DHT22;27869;51.442;7.540;2023-04-03T01:10:15;0.60;99.90
42201;DHT22;27869;51.442;7.540;2023-04-03T01:12:45;0.60;99.90
42201;DHT22;27869;51.442;7.540;2023-04-03T01:15:15;0.50;99.90
42201;DHT22;27869;51.442;7.540;2023-04-03T01:17:43;0.50;99.90
42201;DHT22;27869;51.442;7.540;2023-04-03T01:23:52;0.50;99.90
42201;DHT22;27869;51.442;7.540;2023-04-03T01:26:22;0.50;99.90
42201;DHT22;27869;51.442;7.540;2023-04-03T01:28:49;0.40;99.90
42201;DHT22;27869;51.442;7.540;2023-04-03T01:31:22;0.40;99.90
42201;DHT22;27869;51.442;7.540;2023-04-03T01:33:51;0.40;99.90
42201;DHT22;27869;51.442;7.540;2023-04-03T01:36:20;0.40;99.90
42201;DHT22;27869;51.442;7.540;2023-04-03T01:38:48;0.40;99.90
42201;DHT22;27869;51.442;7.540;2023-04-03T01:41:15;0.40;99.90
42201;DHT22;27869;51.442;7.540;2023-04-03T01:43:43;0.40;99.90
42201;DHT22;27869;51.442;7.540;2023-04-03T01:46:09;0.40;99.90
42201;DHT22;27869;51.442;7.540;2023-04-03T01:48:36;0.40;99.90
42201;DHT22;27869;51.442;7.540;2023-04-03T01:51:05;0.30;99.90
42201;DHT22;27869;51.442;7.540;2023-04-03T01:53:32;0.30;99.90
42201;DHT22;27869;51.442;7.540;2023-04-03T01:55:59;0.30;99.90
42201;DHT22;27869;51.442;7.540;2023-04-03T01:58:26;0.30;99.90
42201;DHT22;27869;51.442;7.540;2023-04-03T02:00:53;0.30;99.90
42201;DHT22;27869;51.442;7.540;2023-04-03T02:03:20;0.30;99.90
42201;DHT22;27869;51.442;7.540;2023-04-03T02:05:47;0.30;99.90
42201;DHT22;27869;51.442;7.540;2023-04-03T02:08:15;0.30;99.90
42201;DHT22;27869;51.442;7.540;2023-04-03T02:10:43;0.30;99.90
42201;DHT22;27869;51.442;7.540;2023-04-03T02:13:10;0.30;99.90
42201;DHT22;27869;51.442;7.540;2023-04-03T02:15:38;0.30;99.90
42201;DHT22;27869;51.442;7.540;2023-04-03T02:18:05;0.20;99.90
42201;DHT22;27869;51.442;7.540;2023-04-03T02:20:32;0.20;99.90
42201;DHT22;27869;51.442;7.540;2023-04-03T02:22:59;0.20;99.90
42201;DHT22;27869;51.442;7.540;2023-04-03T02:25:27;0.20;99.90
42201;DHT22;27869;51.442;7.540;2023-04-03T02:27:54;0.20;99.90
42201;DHT22;27869;51.442;7.540;2023-04-03T02:30:21;0.20;99.90
42201;DHT22;27869;51.442;7.540;2023-04-03T02:32:48;0.20;99.90
42201;DHT22;27869;51.442;7.540;2023-04-03T02:35:15;0.20;99.90
42201;DHT22;27869;51.442;7.540;2023-04-03T02:37:42;0.20;99.90
42201;DHT22;27869;51.442;7.540;2023-04-03T02:40:09;0.20;99.90
42201;DHT22;27869;51.442;7.540;2023-04-03T02:42:38;0.20;99.90
42201;DHT22;27869;51.442;7.540;2023-04-03T02:45:06;0.20;99.90
42201;DHT22;27869;51.442;7.540;2023-04-03T02:47:33;0.10;99.90
42201;DHT22;27869;51.442;7.540;2023-04-03T02:50:00;0.20;99.90
42201;DHT22;27869;51.442;7.540;2023-04-03T02:52:27;0.20;99.90
42201;DHT22;27869;51.442;7.540;2023-04-03T02:54:54;0.20;99.90
42201;DHT22;27869;51.442;7.540;2023-04-03T02:57:20;0.20;99.90
42201;DHT22;27869;51.442;7.540;2023-04-03T02:59:49;0.20;99.90
42201;DHT22;27869;51.442;7.540;2023-04-03T03:02:16;0.20;99.90
42201;DHT22;27869;51.442;7.540;2023-04-03T03:04:43;0.20;99.90
42201;DHT22;27869;51.442;7.540;2023-04-03T03:07:10;0.20;99.90
42201;DHT22;27869;51.442;7.540;2023-04-03T03:09:36;0.20;99.90
42201;DHT22;27869;51.442;7.540;2023-04-03T03:12:04;0.20;99.90
42201;DHT22;27869;51.442;7.540;2023-04-03T03:14:31;0.20;99.90
42201;DHT22;27869;51.442;7.540;2023-04-03T03:16:59;0.20;99.90
42201;DHT22;27869;51.442;7.540;2023-04-03T03:19:26;0.20;99.90
42201;DHT22;27869;51.442;7.540;2023-04-03T03:21:53;0.10;99.90
42201;DHT22;27869;51.442;7.540;2023-04-03T03:24:19;0.10;99.90
42201;DHT22;27869;51.442;7.540;2023-04-03T03:26:46;0.20;99.90
42201;DHT22;27869;51.442;7.540;2023-04-03T03:29:13;0.20;99.90
42201;DHT22;27869;51.442;7.540;2023-04-03T03:31:40;0.20;99.90
42201;DHT22;27869;51.442;7.540;2023-04-03T03:34:08;0.30;99.90
42201;DHT22;27869;51.442;7.540;2023-04-03T03:36:35;0.30;99.90
42201;DHT22;27869;51.442;7.540;2023-04-03T03:39:02;0.30;99.90
42201;DHT22;27869;51.442;7.540;2023-04-03T03:41:29;0.40;99.90
42201;DHT22;27869;51.442;7.540;2023-04-03T03:43:56;0.40;99.90
42201;DHT22;27869;51.442;7.540;2023-04-03T03:46:23;0.40;99.90
42201;DHT22;27869;51.442;7.540;2023-04-03T03:48:50;0.40;99.90
42201;DHT22;27869;51.442;7.540;2023-04-03T03:51:18;0.40;99.90
42201;DHT22;27869;51.442;7.540;2023-04-03T03:53:45;0.40;99.90
42201;DHT22;27869;51.442;7.540;2023-04-03T03:56:12;0.50;99.90
42201;DHT22;27869;51.442;7.540;2023-04-03T03:58:39;0.50;99.90
42201;DHT22;27869;51.442;7.540;2023-04-03T04:01:06;0.50;99.90
42201;DHT22;27869;51.442;7.540;2023-04-03T04:03:34;0.50;99.90
42201;DHT22;27869;51.442;7.540;2023-04-03T04:06:01;0.40;99.90
42201;DHT22;27869;51.442;7.540;2023-04-03T04:08:29;0.50;99.90
42201;DHT22;27869;51.442;7.540;2023-04-03T04:10:56;0.50;99.90
42201;DHT22;27869;51.442;7.540;2023-04-03T04:13:23;0.50;99.90
42201;DHT22;27869;51.442;7.540;2023-04-03T04:15:50;0.50;99.90
42201;DHT22;27869;51.442;7.540;2023-04-03T04:18:16;0.50;99.90
42201;DHT22;27869;51.442;7.540;2023-04-03T04:20:45;0.50;99.90
42201;DHT22;27869;51.442;7.540;2023-04-03T04:23:12;0.50;99.90
42201;DHT22;27869;51.442;7.540;2023-04-03T04:25:40;0.50;99.90
42201;DHT22;27869;51.442;7.540;2023-04-03T04:28:07;0.50;99.90
42201;DHT22;27869;51.442;7.540;2023-04-03T04:30:34;0.50;99.90
42201;DHT22;27869;51.442;7.540;2023-04-03T04:33:01;0.50;99.90
42201;DHT22;27869;51.442;7.540;2023-04-03T04:35:28;0.50;99.90
42201;DHT22;27869;51.442;7.540;2023-04-03T04:37:55;0.50;99.90
42201;DHT22;27869;51.442;7.540;2023-04-03T04:40:22;0.50;99.90
42201;DHT22;27869;51.442;7.540;2023-04-03T04:42:50;0.40;99.90
42201;DHT22;27869;51.442;7.540;2023-04-03T04:45:17;0.40;99.90
42201;DHT22;27869;51.442;7.540;2023-04-03T04:47:44;0.40;99.90
42201;DHT22;27869;51.442;7.540;2023-04-03T04:50:12;0.40;99.90
42201;DHT22;27869;51.442;7.540;2023-04-03T04:52:39;0.40;99.90
42201;DHT22;27869;51.442;7.540;2023-04-03T04:55:07;0.40;99.90
42201;DHT22;27869;51.442;7.540;2023-04-03T04:57:34;0.40;99.90
42201;DHT22;27869;51.442;7.540;2023-04-03T05:00:04;0.40;99.90
42201;DHT22;27869;51.442;7.540;2023-04-03T05:02:31;0.40;99.90
42201;DHT22;27869;51.442;7.540;2023-04-03T05:04:58;0.40;99.90
42201;DHT22;27869;51.442;7.540;2023-04-03T05:07:25;0.40;99.90
42201;DHT22;27869;51.442;7.540;2023-04-03T05:09:51;0.40;99.90
42201;DHT22;27869;51.442;7.540;2023-04-03T05:12:18;0.40;99.90
42201;DHT22;27869;51.442;7.540;2023-04-03T05:14:45;0.40;99.90
42201;DHT22;27869;51.442;7.540;2023-04-03T05:17:13;0.30;99.90
42201;DHT22;27869;51.442;7.540;2023-04-03T05:19:40;0.40;99.90
42201;DHT22;27869;51.442;7.540;2023-04-03T05:22:07;0.40;99.90
42201;DHT22;27869;51.442;7.540;2023-04-03T05:24:34;0.40;99.90
42201;DHT22;27869;51.442;7.540;2023-04-03T05:27:01;0.40;99.90
42201;DHT22;27869;51.442;7.540;2023-04-03T05:29:28;0.40;99.90
42201;DHT22;27869;51.442;7.540;2023-04-03T05:31:55;0.40;99.90
42201;DHT22;27869;51.442;7.540;2023-04-03T05:34:23;0.40;99.90
42201;DHT22;27869;51.442;7.540;2023-04-03T05:36:50;0.40;99.90
42201;DHT22;27869;51.442;7.540;2023-04-03T05:39:17;0.40;99.90
42201;DHT22;27869;51.442;7.540;2023-04-03T05:41:44;0.50;99.90
42201;DHT22;27869;51.442;7.540;2023-04-03T05:44:11;0.50;99.90
42201;DHT22;27869;51.442;7.540;2023-04-03T05:46:38;0.50;99.90
42201;DHT22;27869;51.442;7.540;2023-04-03T05:49:04;0.50;99.90
42201;DHT22;27869;51.442;7.540;2023-04-03T05:51:34;0.50;99.90
42201;DHT22;27869;51.442;7.540;2023-04-03T05:54:08;0.50;99.90
42201;DHT22;27869;51.442;7.540;2023-04-03T05:56:35;0.50;99.90
42201;DHT22;27869;51.442;7.540;2023-04-03T05:59:02;0.60;99.90
42201;DHT22;27869;51.442;7.540;2023-04-03T06:01:29;0.60;99.90
42201;DHT22;27869;51.442;7.540;2023-04-03T06:03:56;0.60;99.90
42201;DHT22;27869;51.442;7.540;2023-04-03T06:06:24;0.60;99.90
42201;DHT22;27869;51.442;7.540;2023-04-03T06:08:52;0.60;99.90
42201;DHT22;27869;51.442;7.540;2023-04-03T06:11:19;0.70;99.90
42201;DHT22;27869;51.442;7.540;2023-04-03T06:13:47;0.70;99.90
42201;DHT22;27869;51.442;7.540;2023-04-03T06:16:15;0.70;99.90
42201;DHT22;27869;51.442;7.540;2023-04-03T06:18:43;0.70;99.90
42201;DHT22;27869;51.442;7.540;2023-04-03T06:21:10;0.80;99.90
42201;DHT22;27869;51.442;7.540;2023-04-03T06:23:37;0.80;99.90
42201;DHT22;27869;51.442;7.540;2023-04-03T06:26:05;0.80;99.90
42201;DHT22;27869;51.442;7.540;2023-04-03T06:28:32;0.80;99.90
42201;DHT22;27869;51.442;7.540;2023-04-03T06:30:59;0.80;99.90
42201;DHT22;27869;51.442;7.540;2023-04-03T06:33:26;0.90;99.90
42201;DHT22;27869;51.442;7.540;2023-04-03T06:35:57;0.90;99.90
42201;DHT22;27869;51.442;7.540;2023-04-03T06:38:24;1.00;99.90
42201;DHT22;27869;51.442;7.540;2023-04-03T06:40:51;1.00;99.90
42201;DHT22;27869;51.442;7.540;2023-04-03T06:43:20;1.00;99.90
42201;DHT22;27869;51.442;7.540;2023-04-03T06:45:47;1.00;99.90
42201;DHT22;27869;51.442;7.540;2023-04-03T06:48:14;1.10;99.90
42201;DHT22;27869;51.442;7.540;2023-04-03T06:50:41;1.10;99.90
42201;DHT22;27869;51.442;7.540;2023-04-03T06:53:08;1.10;99.90
42201;DHT22;27869;51.442;7.540;2023-04-03T06:55:35;1.10;99.90
42201;DHT22;27869;51.442;7.540;2023-04-03T06:58:02;1.10;99.90
42201;DHT22;27869;51.442;7.540;2023-04-03T07:00:31;1.20;99.90
42201;DHT22;27869;51.442;7.540;2023-04-03T07:02:58;1.20;99.90
42201;DHT22;27869;51.442;7.540;2023-04-03T07:05:26;1.20;99.90
42201;DHT22;27869;51.442;7.540;2023-04-03T07:07:53;1.30;99.90
42201;DHT22;27869;51.442;7.540;2023-04-03T07:10:20;1.30;99.90
42201;DHT22;27869;51.442;7.540;2023-04-03T07:12:47;1.30;99.90
42201;DHT22;27869;51.442;7.540;2023-04-03T07:15:13;1.40;99.90
42201;DHT22;27869;51.442;7.540;2023-04-03T07:17:42;1.40;99.90
42201;DHT22;27869;51.442;7.540;2023-04-03T07:20:10;1.40;99.90
42201;DHT22;27869;51.442;7.540;2023-04-03T07:22:37;1.50;99.90
42201;DHT22;27869;51.442;7.540;2023-04-03T07:25:05;1.60;99.90
42201;DHT22;27869;51.442;7.540;2023-04-03T07:27:33;1.60;99.90
42201;DHT22;27869;51.442;7.540;2023-04-03T07:30:00;1.70;99.90
42201;DHT22;27869;51.442;7.540;2023-04-03T07:32:27;1.70;99.90
42201;DHT22;27869;51.442;7.540;2023-04-03T07:34:55;1.80;99.90
42201;DHT22;27869;51.442;7.540;2023-04-03T07:37:22;1.90;99.90
42201;DHT22;27869;51.442;7.540;2023-04-03T07:39:49;1.90;99.90
42201;DHT22;27869;51.442;7.540;2023-04-03T07:42:16;2.00;99.90
42201;DHT22;27869;51.442;7.540;2023-04-03T07:44:43;2.00;99.90
42201;DHT22;27869;51.442;7.540;2023-04-03T07:47:11;2.10;99.90
42201;DHT22;27869;51.442;7.540;2023-04-03T07:49:39;2.20;99.90
42201;DHT22;27869;51.442;7.540;2023-04-03T07:52:08;2.20;99.90
42201;DHT22;27869;51.442;7.540;2023-04-03T07:54:35;2.30;99.90
42201;DHT22;27869;51.442;7.540;2023-04-03T07:57:02;2.40;99.90
42201;DHT22;27869;51.442;7.540;2023-04-03T07:59:30;2.40;99.90
42201;DHT22;27869;51.442;7.540;2023-04-03T08:01:57;2.50;99.90
42201;DHT22;27869;51.442;7.540;2023-04-03T08:04:25;2.60;99.90
42201;DHT22;27869;51.442;7.540;2023-04-03T08:06:52;2.60;99.90
42201;DHT22;27869;51.442;7.540;2023-04-03T08:09:20;2.70;99.90
42201;DHT22;27869;51.442;7.540;2023-04-03T08:11:47;2.80;99.90
42201;DHT22;27869;51.442;7.540;2023-04-03T08:14:15;2.90;99.90
42201;DHT22;27869;51.442;7.540;2023-04-03T08:16:44;3.00;99.90
42201;DHT22;27869;51.442;7.540;2023-04-03T08:19:11;3.10;99.90
42201;DHT22;27869;51.442;7.540;2023-04-03T08:21:39;3.20;99.90
42201;DHT22;27869;51.442;7.540;2023-04-03T08:24:07;3.30;99.90
42201;DHT22;27869;51.442;7.540;2023-04-03T08:26:36;3.30;99.90
42201;DHT22;27869;51.442;7.540;2023-04-03T08:29:03;3.40;99.90
42201;DHT22;27869;51.442;7.540;2023-04-03T08:31:30;3.50;99.90
42201;DHT22;27869;51.442;7.540;2023-04-03T08:33:58;3.50;99.90
42201;DHT22;27869;51.442;7.540;2023-04-03T08:36:26;3.60;99.90
42201;DHT22;27869;51.442;7.540;2023-04-03T08:38:54;3.70;99.90
42201;DHT22;27869;51.442;7.540;2023-04-03T08:41:29;3.80;99.90
42201;DHT22;27869;51.442;7.540;2023-04-03T08:44:14;3.90;99.90
42201;DHT22;27869;51.442;7.540;2023-04-03T08:47:02;3.90;99.90
42201;DHT22;27869;51.442;7.540;2023-04-03T08:49:33;4.00;99.90
42201;DHT22;27869;51.442;7.540;2023-04-03T08:52:03;4.10;99.90
42201;DHT22;27869;51.442;7.540;2023-04-03T08:54:34;4.20;99.90
42201;DHT22;27869;51.442;7.540;2023-04-03T08:57:04;4.30;99.90
42201;DHT22;27869;51.442;7.540;2023-04-03T08:59:35;4.40;99.90
42201;DHT22;27869;51.442;7.540;2023-04-03T09:02:16;4.50;99.90
42201;DHT22;27869;51.442;7.540;2023-04-03T09:04:47;4.60;99.90
42201;DHT22;27869;51.442;7.540;2023-04-03T09:07:22;4.70;99.90
42201;DHT22;27869;51.442;7.540;2023-04-03T09:09:52;4.80;99.90
42201;DHT22;27869;51.442;7.540;2023-04-03T09:12:23;4.90;99.90
42201;DHT22;27869;51.442;7.540;2023-04-03T09:14:59;5.10;99.90
42201;DHT22;27869;51.442;7.540;2023-04-03T09:17:38;5.20;99.90
42201;DHT22;27869;51.442;7.540;2023-04-03T09:20:17;5.30;99.90
42201;DHT22;27869;51.442;7.540;2023-04-03T09:22:46;5.30;99.90
42201;DHT22;27869;51.442;7.540;2023-04-03T09:25:18;5.50;99.90
42201;DHT22;27869;51.442;7.540;2023-04-03T09:27:47;5.50;99.90
42201;DHT22;27869;51.442;7.540;2023-04-03T09:30:17;5.70;99.90
42201;DHT22;27869;51.442;7.540;2023-04-03T09:32:45;5.70;99.90
42201;DHT22;27869;51.442;7.540;2023-04-03T09:35:21;5.80;99.90
42201;DHT22;27869;51.442;7.540;2023-04-03T09:37:51;5.90;99.90
42201;DHT22;27869;51.442;7.540;2023-04-03T09:40:29;6.00;99.90
42201;DHT22;27869;51.442;7.540;2023-04-03T09:42:58;6.10;99.90
42201;DHT22;27869;51.442;7.540;2023-04-03T09:45:28;6.20;99.90
42201;DHT22;27869;51.442;7.540;2023-04-03T09:48:07;6.20;99.90
42201;DHT22;27869;51.442;7.540;2023-04-03T09:50:35;6.40;99.90
42201;DHT22;27869;51.442;7.540;2023-04-03T09:53:07;6.50;99.90
42201;DHT22;27869;51.442;7.540;2023-04-03T09:55:48;6.70;99.90
42201;DHT22;27869;51.442;7.540;2023-04-03T09:58:26;6.90;99.90
42201;DHT22;27869;51.442;7.540;2023-04-03T10:00:57;7.00;99.90
42201;DHT22;27869;51.442;7.540;2023-04-03T10:03:28;7.10;99.90
42201;DHT22;27869;51.442;7.540;2023-04-03T10:05:56;7.20;99.90
42201;DHT22;27869;51.442;7.540;2023-04-03T10:08:27;7.20;99.90
42201;DHT22;27869;51.442;7.540;2023-04-03T10:11:12;7.30;99.90
42201;DHT22;27869;51.442;7.540;2023-04-03T10:14:00;7.30;99.90
42201;DHT22;27869;51.442;7.540;2023-04-03T10:16:35;7.40;99.90
42201;DHT22;27869;51.442;7.540;2023-04-03T10:19:29;7.50;99.90
42201;DHT22;27869;51.442;7.540;2023-04-03T10:22:02;7.60;99.90
42201;DHT22;27869;51.442;7.540;2023-04-03T10:24:36;7.70;99.90
42201;DHT22;27869;51.442;7.540;2023-04-03T10:27:11;7.80;99.90
42201;DHT22;27869;51.442;7.540;2023-04-03T10:29:44;7.80;99.90
42201;DHT22;27869;51.442;7.540;2023-04-03T10:32:35;7.90;99.90
42201;DHT22;27869;51.442;7.540;2023-04-03T10:35:15;8.10;99.90
42201;DHT22;27869;51.442;7.540;2023-04-03T10:37:53;8.20;99.90
42201;DHT22;27869;51.442;7.540;2023-04-03T10:40:30;8.20;99.90
42201;DHT22;27869;51.442;7.540;2023-04-03T10:43:02;8.30;99.90
42201;DHT22;27869;51.442;7.540;2023-04-03T10:45:45;8.30;99.90
42201;DHT22;27869;51.442;7.540;2023-04-03T10:48:24;8.30;99.90
42201;DHT22;27869;51.442;7.540;2023-04-03T10:50:59;8.40;99.90
42201;DHT22;27869;51.442;7.540;2023-04-03T10:53:34;8.40;99.90
42201;DHT22;27869;51.442;7.540;2023-04-03T10:56:10;8.50;99.90
42201;DHT22;27869;51.442;7.540;2023-04-03T10:58:43;8.40;99.90
42201;DHT22;27869;51.442;7.540;2023-04-03T11:01:14;8.50;99.90
42201;DHT22;27869;51.442;7.540;2023-04-03T11:03:46;8.60;99.90
42201;DHT22;27869;51.442;7.540;2023-04-03T11:06:16;8.70;99.90
42201;DHT22;27869;51.442;7.540;2023-04-03T11:08:48;8.70;99.90
42201;DHT22;27869;51.442;7.540;2023-04-03T11:11:20;8.70;98.70
42201;DHT22;27869;51.442;7.540;2023-04-03T11:13:52;8.60;99.20
42201;DHT22;27869;51.442;7.540;2023-04-03T11:16:24;8.70;99.90
42201;DHT22;27869;51.442;7.540;2023-04-03T11:18:56;8.70;99.40
42201;DHT22;27869;51.442;7.540;2023-04-03T11:21:29;8.70;99.90
42201;DHT22;27869;51.442;7.540;2023-04-03T11:24:03;8.70;99.90
42201;DHT22;27869;51.442;7.540;2023-04-03T11:26:38;8.70;98.40
42201;DHT22;27869;51.442;7.540;2023-04-03T11:29:08;8.70;96.50
42201;DHT22;27869;51.442;7.540;2023-04-03T11:31:45;8.60;94.60
42201;DHT22;27869;51.442;7.540;2023-04-03T11:34:26;8.60;98.10
42201;DHT22;27869;51.442;7.540;2023-04-03T11:36:58;8.70;99.90
42201;DHT22;27869;51.442;7.540;2023-04-03T11:39:29;8.80;99.90
42201;DHT22;27869;51.442;7.540;2023-04-03T11:42:15;8.80;99.90
42201;DHT22;27869;51.442;7.540;2023-04-03T11:44:43;8.80;99.90
42201;DHT22;27869;51.442;7.540;2023-04-03T11:47:11;8.80;99.90
42201;DHT22;27869;51.442;7.540;2023-04-03T11:49:57;8.90;99.90
42201;DHT22;27869;51.442;7.540;2023-04-03T11:55:59;8.90;99.30
42201;DHT22;27869;51.442;7.540;2023-04-03T11:58:28;8.90;99.90
42201;DHT22;27869;51.442;7.540;2023-04-03T12:01:04;8.90;99.90
42201;DHT22;27869;51.442;7.540;2023-04-03T12:10:13;9.00;99.90
42201;DHT22;27869;51.442;7.540;2023-04-03T12:12:41;8.90;99.90
42201;DHT22;27869;51.442;7.540;2023-04-03T12:15:41;8.80;99.90
42201;DHT22;27869;51.442;7.540;2023-04-03T12:18:42;8.80;99.90
42201;DHT22;27869;51.442;7.540;2023-04-03T12:21:10;8.80;99.90
42201;DHT22;27869;51.442;7.540;2023-04-03T12:24:03;8.70;99.70
42201;DHT22;27869;51.442;7.540;2023-04-03T12:26:38;8.50;98.40
42201;DHT22;27869;51.442;7.540;2023-04-03T12:29:14;8.40;98.10
42201;DHT22;27869;51.442;7.540;2023-04-03T12:31:48;8.40;93.30
42201;DHT22;27869;51.442;7.540;2023-04-03T12:34:44;8.40;99.90
42201;DHT22;27869;51.442;7.540;2023-04-03T12:37:29;8.30;95.90
42201;DHT22;27869;51.442;7.540;2023-04-03T12:40:09;8.30;94.20
42201;DHT22;27869;51.442;7.540;2023-04-03T12:42:58;8.30;99.90
42201;DHT22;27869;51.442;7.540;2023-04-03T12:45:40;8.20;99.90
42201;DHT22;27869;51.442;7.540;2023-04-03T12:48:13;8.20;99.90
42201;DHT22;27869;51.442;7.540;2023-04-03T12:50:41;8.30;99.90
42201;DHT22;27869;51.442;7.540;2023-04-03T12:53:13;8.30;97.70
42201;DHT22;27869;51.442;7.540;2023-04-03T12:55:42;8.30;99.90
42201;DHT22;27869;51.442;7.540;2023-04-03T12:58:20;8.30;94.60
42201;DHT22;27869;51.442;7.540;2023-04-03T13:00:59;8.30;99.90
42201;DHT22;27869;51.442;7.540;2023-04-03T13:03:26;8.40;99.90
42201;DHT22;27869;51.442;7.540;2023-04-03T13:05:55;8.40;99.90
42201;DHT22;27869;51.442;7.540;2023-04-03T13:08:25;8.50;99.90
42201;DHT22;27869;51.442;7.540;2023-04-03T13:10:56;8.50;99.90
42201;DHT22;27869;51.442;7.540;2023-04-03T13:13:24;8.50;99.90
42201;DHT22;27869;51.442;7.540;2023-04-03T13:15:53;8.40;99.90
42201;DHT22;27869;51.442;7.540;2023-04-03T13:18:26;8.30;97.50
42201;DHT22;27869;51.442;7.540;2023-04-03T13:20:57;8.20;99.30
42201;DHT22;27869;51.442;7.540;2023-04-03T13:23:26;8.20;98.20
42201;DHT22;27869;51.442;7.540;2023-04-03T13:25:55;8.20;99.90
42201;DHT22;27869;51.442;7.540;2023-04-03T13:28:27;8.10;99.90
42201;DHT22;27869;51.442;7.540;2023-04-03T13:30:57;8.10;99.90
42201;DHT22;27869;51.442;7.540;2023-04-03T13:33:28;8.10;99.90
42201;DHT22;27869;51.442;7.540;2023-04-03T13:36:00;8.00;99.90
42201;DHT22;27869;51.442;7.540;2023-04-03T13:38:29;7.90;99.90
42201;DHT22;27869;51.442;7.540;2023-04-03T13:41:01;7.90;99.90
42201;DHT22;27869;51.442;7.540;2023-04-03T13:43:29;7.80;96.40
42201;DHT22;27869;51.442;7.540;2023-04-03T13:46:04;7.70;99.10
42201;DHT22;27869;51.442;7.540;2023-04-03T13:48:37;7.80;99.20
42201;DHT22;27869;51.442;7.540;2023-04-03T13:51:05;7.80;98.90
42201;DHT22;27869;51.442;7.540;2023-04-03T13:53:40;7.80;98.20
42201;DHT22;27869;51.442;7.540;2023-04-03T13:56:18;7.70;96.80
42201;DHT22;27869;51.442;7.540;2023-04-03T13:58:54;7.70;99.90
42201;DHT22;27869;51.442;7.540;2023-04-03T14:01:24;7.70;99.10
42201;DHT22;27869;51.442;7.540;2023-04-03T14:03:53;7.70;99.90
42201;DHT22;27869;51.442;7.540;2023-04-03T14:06:21;7.70;99.90
42201;DHT22;27869;51.442;7.540;2023-04-03T14:08:48;7.70;96.10
42201;DHT22;27869;51.442;7.540;2023-04-03T14:11:19;7.80;98.50
42201;DHT22;27869;51.442;7.540;2023-04-03T14:13:48;7.80;99.90
42201;DHT22;27869;51.442;7.540;2023-04-03T14:16:18;7.70;97.90
42201;DHT22;27869;51.442;7.540;2023-04-03T14:18:46;7.70;99.90
42201;DHT22;27869;51.442;7.540;2023-04-03T14:21:16;7.70;96.40
42201;DHT22;27869;51.442;7.540;2023-04-03T14:23:44;7.60;95.40
42201;DHT22;27869;51.442;7.540;2023-04-03T14:26:13;7.60;99.90
42201;DHT22;27869;51.442;7.540;2023-04-03T14:28:43;7.60;99.90
42201;DHT22;27869;51.442;7.540;2023-04-03T14:31:11;7.70;99.90
42201;DHT22;27869;51.442;7.540;2023-04-03T14:33:38;7.60;99.90
42201;DHT22;27869;51.442;7.540;2023-04-03T14:36:13;7.70;99.90
42201;DHT22;27869;51.442;7.540;2023-04-03T14:38:41;7.60;99.90
42201;DHT22;27869;51.442;7.540;2023-04-03T14:41:10;7.60;97.60
42201;DHT22;27869;51.442;7.540;2023-04-03T14:43:38;7.60;99.90
42201;DHT22;27869;51.442;7.540;2023-04-03T14:46:12;7.60;99.90
42201;DHT22;27869;51.442;7.540;2023-04-03T14:48:39;7.60;99.90
42201;DHT22;27869;51.442;7.540;2023-04-03T14:51:06;7.60;99.90
42201;DHT22;27869;51.442;7.540;2023-04-03T14:53:33;7.70;99.90
42201;DHT22;27869;51.442;7.540;2023-04-03T14:56:01;7.70;96.70
42201;DHT22;27869;51.442;7.540;2023-04-03T14:58:28;7.70;98.80
42201;DHT22;27869;51.442;7.540;2023-04-03T15:00:55;7.70;99.60
42201;DHT22;27869;51.442;7.540;2023-04-03T15:03:23;7.60;99.90
42201;DHT22;27869;51.442;7.540;2023-04-03T15:05:50;7.60;99.20
42201;DHT22;27869;51.442;7.540;2023-04-03T15:08:19;7.60;99.90
42201;DHT22;27869;51.442;7.540;2023-04-03T15:10:47;7.60;99.90
42201;DHT22;27869;51.442;7.540;2023-04-03T15:13:15;7.60;99.90
42201;DHT22;27869;51.442;7.540;2023-04-03T15:15:42;7.60;99.90
42201;DHT22;27869;51.442;7.540;2023-04-03T15:18:14;7.60;99.00
42201;DHT22;27869;51.442;7.540;2023-04-03T15:20:43;7.60;99.90
42201;DHT22;27869;51.442;7.540;2023-04-03T15:23:12;7.50;98.80
42201;DHT22;27869;51.442;7.540;2023-04-03T15:25:39;7.60;99.90
42201;DHT22;27869;51.442;7.540;2023-04-03T15:28:09;7.60;97.70
42201;DHT22;27869;51.442;7.540;2023-04-03T15:30:39;7.60;99.40
42201;DHT22;27869;51.442;7.540;2023-04-03T15:33:06;7.50;99.90
42201;DHT22;27869;51.442;7.540;2023-04-03T15:35:33;7.50;99.90
42201;DHT22;27869;51.442;7.540;2023-04-03T15:38:02;7.50;98.60
42201;DHT22;27869;51.442;7.540;2023-04-03T15:40:28;7.50;99.90
42201;DHT22;27869;51.442;7.540;2023-04-03T15:42:55;7.50;99.90
42201;DHT22;27869;51.442;7.540;2023-04-03T15:45:22;7.50;99.90
42201;DHT22;27869;51.442;7.540;2023-04-03T15:47:50;7.50;99.90
42201;DHT22;27869;51.442;7.540;2023-04-03T15:50:17;7.50;99.40
42201;DHT22;27869;51.442;7.540;2023-04-03T15:52:44;7.50;96.80
42201;DHT22;27869;51.442;7.540;2023-04-03T15:55:13;7.50;99.90
42201;DHT22;27869;51.442;7.540;2023-04-03T15:57:39;7.50;99.90
42201;DHT22;27869;51.442;7.540;2023-04-03T16:00:07;7.50;96.40
42201;DHT22;27869;51.442;7.540;2023-04-03T16:02:34;7.50;98.70
42201;DHT22;27869;51.442;7.540;2023-04-03T16:05:01;7.50;99.90
42201;DHT22;27869;51.442;7.540;2023-04-03T16:07:29;7.50;98.70
42201;DHT22;27869;51.442;7.540;2023-04-03T16:09:56;7.50;99.90
42201;DHT22;27869;51.442;7.540;2023-04-03T16:12:24;7.50;98.60
42201;DHT22;27869;51.442;7.540;2023-04-03T16:14:51;7.60;99.90
42201;DHT22;27869;51.442;7.540;2023-04-03T16:17:18;7.50;99.90